sensor_id;sensor_type;location;lat;lon;timestamp;pressure;altitude;pressure_sealevel;temperature;humidity
73564;BME280;61834;50.196;6.454;2023-02-01T00:01:30;96847.19;;;3.67;100.00
73564;BME280;61834;50.196;6.454;2023-02-01T00:03:56;96852.78;;;3.62;100.00
73564;BME280;61834;50.196;6.454;2023-02-01T00:06:21;96852.59;;;3.67;100.00
73564;BME280;61834;50.196;6.454;2023-02-01T00:08:47;96858.34;;;3.66;100.00
73564;BME280;61834;50.196;6.454;2023-02-01T00:11:13;96847.47;;;3.74;100.00
73564;BME280;61834;50.196;6.454;2023-02-01T00:13:40;96833.13;;;3.74;100.00
73564;BME280;61834;50.196;6.454;2023-02-01T00:16:08;96836.44;;;3.79;100.00
73564;BME280;61834;50.196;6.454;2023-02-01T00:18:34;96843.53;;;3.72;100.00
73564;BME280;61834;50.196;6.454;2023-02-01T00:21:00;96844.72;;;3.83;100.00
73564;BME280;61834;50.196;6.454;2023-02-01T00:23:26;96845.38;;;3.80;100.00
73564;BME280;61834;50.196;6.454;2023-02-01T00:25:52;96845.03;;;3.81;100.00
73564;BME280;61834;50.196;6.454;2023-02-01T00:28:17;96841.19;;;3.82;100.00
73564;BME280;61834;50.196;6.454;2023-02-01T00:30:42;96844.25;;;3.81;100.00
73564;BME280;61834;50.196;6.454;2023-02-01T00:33:08;96835.84;;;3.74;100.00
73564;BME280;61834;50.196;6.454;2023-02-01T00:35:34;96846.22;;;3.72;100.00
73564;BME280;61834;50.196;6.454;2023-02-01T00:38:00;96849.44;;;3.65;100.00
73564;BME280;61834;50.196;6.454;2023-02-01T00:40:25;96836.81;;;3.69;100.00
73564;BME280;61834;50.196;6.454;2023-02-01T00:42:51;96841.34;;;3.65;100.00
73564;BME280;61834;50.196;6.454;2023-02-01T00:45:17;96848.19;;;3.63;100.00
73564;BME280;61834;50.196;6.454;2023-02-01T00:47:43;96843.75;;;3.58;100.00
73564;BME280;61834;50.196;6.454;2023-02-01T00:50:08;96835.78;;;3.62;100.00
73564;BME280;61834;50.196;6.454;2023-02-01T00:52:34;96831.28;;;3.66;100.00
73564;BME280;61834;50.196;6.454;2023-02-01T00:54:59;96839.53;;;3.69;100.00
73564;BME280;61834;50.196;6.454;2023-02-01T00:57:25;96847.03;;;3.64;100.00
73564;BME280;61834;50.196;6.454;2023-02-01T00:59:51;96841.34;;;3.65;100.00
73564;BME280;61834;50.196;6.454;2023-02-01T01:02:16;96848.66;;;3.65;100.00
73564;BME280;61834;50.196;6.454;2023-02-01T01:04:41;96849.44;;;3.65;100.00
73564;BME280;61834;50.196;6.454;2023-02-01T01:07:07;96843.72;;;3.67;100.00
73564;BME280;61834;50.196;6.454;2023-02-01T01:09:32;96847.69;;;3.61;100.00
73564;BME280;61834;50.196;6.454;2023-02-01T01:11:58;96847.03;;;3.64;100.00
73564;BME280;61834;50.196;6.454;2023-02-01T01:14:30;96849.75;;;3.64;100.00
73564;BME280;61834;50.196;6.454;2023-02-01T01:16:55;96849.31;;;3.62;100.00
73564;BME280;61834;50.196;6.454;2023-02-01T01:19:21;96838.75;;;3.69;100.00
73564;BME280;61834;50.196;6.454;2023-02-01T01:21:46;96844.94;;;3.69;100.00
73564;BME280;61834;50.196;6.454;2023-02-01T01:24:12;96844.34;;;3.64;100.00
73564;BME280;61834;50.196;6.454;2023-02-01T01:26:37;96851.84;;;3.67;100.00
73564;BME280;61834;50.196;6.454;2023-02-01T01:29:03;96839.25;;;3.62;100.00
73564;BME280;61834;50.196;6.454;2023-02-01T01:31:30;96825.75;;;3.54;100.00
73564;BME280;61834;50.196;6.454;2023-02-01T01:33:57;96822.94;;;3.50;100.00
73564;BME280;61834;50.196;6.454;2023-02-01T01:36:25;96817.47;;;3.59;100.00
73564;BME280;61834;50.196;6.454;2023-02-01T01:38:51;96816.53;;;3.55;100.00
73564;BME280;61834;50.196;6.454;2023-02-01T01:41:22;96808.78;;;3.45;100.00
73564;BME280;61834;50.196;6.454;2023-02-01T01:44:01;96807.81;;;3.49;100.00
73564;BME280;61834;50.196;6.454;2023-02-01T01:46:31;96815.81;;;3.37;100.00
73564;BME280;61834;50.196;6.454;2023-02-01T01:49:19;96807.66;;;3.46;100.00
73564;BME280;61834;50.196;6.454;2023-02-01T01:51:56;96811.69;;;3.40;100.00
73564;BME280;61834;50.196;6.454;2023-02-01T01:54:29;96798.97;;;3.40;100.00
73564;BME280;61834;50.196;6.454;2023-02-01T01:56:58;96793.22;;;3.42;100.00
73564;BME280;61834;50.196;6.454;2023-02-01T01:59:26;96787.47;;;3.43;100.00
73564;BME280;61834;50.196;6.454;2023-02-01T02:01:52;96789.72;;;3.41;100.00
73564;BME280;61834;50.196;6.454;2023-02-01T02:04:18;96802.44;;;3.41;100.00
73564;BME280;61834;50.196;6.454;2023-02-01T02:06:57;96791.63;;;3.41;100.00
73564;BME280;61834;50.196;6.454;2023-02-01T02:09:25;96796.44;;;3.35;100.00
73564;BME280;61834;50.196;6.454;2023-02-01T02:11:51;96797.41;;;3.31;100.00
73564;BME280;61834;50.196;6.454;2023-02-01T02:14:18;96803.94;;;3.30;100.00
73564;BME280;61834;50.196;6.454;2023-02-01T02:16:54;96809.34;;;3.30;100.00
73564;BME280;61834;50.196;6.454;2023-02-01T02:22:41;96812.38;;;3.28;100.00
73564;BME280;61834;50.196;6.454;2023-02-01T02:25:28;96807.72;;;3.37;100.00
73564;BME280;61834;50.196;6.454;2023-02-01T02:39:19;96803.19;;;3.21;100.00
73564;BME280;61834;50.196;6.454;2023-02-01T02:47:26;96787.56;;;3.26;100.00
73564;BME280;61834;50.196;6.454;2023-02-01T02:53:13;96811.88;;;3.35;100.00
73564;BME280;61834;50.196;6.454;2023-02-01T02:55:59;96815.09;;;3.28;100.00
73564;BME280;61834;50.196;6.454;2023-02-01T02:58:46;96810.19;;;3.22;100.00
73564;BME280;61834;50.196;6.454;2023-02-01T03:01:31;96804.09;;;3.33;100.00
73564;BME280;61834;50.196;6.454;2023-02-01T03:04:17;96801.22;;;3.30;100.00
73564;BME280;61834;50.196;6.454;2023-02-01T03:06:48;96798.72;;;3.25;100.00
73564;BME280;61834;50.196;6.454;2023-02-01T03:09:18;96798.69;;;3.33;100.00
73564;BME280;61834;50.196;6.454;2023-02-01T03:11:47;96787.88;;;3.25;100.00
73564;BME280;61834;50.196;6.454;2023-02-01T03:14:36;96787.47;;;3.43;100.00
73564;BME280;61834;50.196;6.454;2023-02-01T03:17:08;96769.38;;;3.35;100.00
73564;BME280;61834;50.196;6.454;2023-02-01T03:19:43;96783.28;;;3.25;100.00
73564;BME280;61834;50.196;6.454;2023-02-01T03:22:17;96783.00;;;3.18;100.00
73564;BME280;61834;50.196;6.454;2023-02-01T03:24:47;96771.94;;;3.32;100.00
73564;BME280;61834;50.196;6.454;2023-02-01T03:27:30;96777.16;;;3.37;100.00
73564;BME280;61834;50.196;6.454;2023-02-01T03:32:26;96781.78;;;3.36;100.00
73564;BME280;61834;50.196;6.454;2023-02-01T03:34:52;96780.03;;;3.40;100.00
73564;BME280;61834;50.196;6.454;2023-02-01T03:37:23;96782.59;;;3.37;100.00
73564;BME280;61834;50.196;6.454;2023-02-01T03:39:59;96786.53;;;3.39;100.00
73564;BME280;61834;50.196;6.454;2023-02-01T03:42:30;96789.84;;;3.45;100.00
73564;BME280;61834;50.196;6.454;2023-02-01T03:45:27;96788.53;;;3.51;100.00
73564;BME280;61834;50.196;6.454;2023-02-01T03:47:57;96777.72;;;3.51;99.52
73564;BME280;61834;50.196;6.454;2023-02-01T03:50:26;96783.25;;;3.54;99.33
73564;BME280;61834;50.196;6.454;2023-02-01T03:52:59;96774.09;;;3.47;99.84
73564;BME280;61834;50.196;6.454;2023-02-01T03:55:28;96771.19;;;3.52;99.58
73564;BME280;61834;50.196;6.454;2023-02-01T03:58:12;96770.44;;;3.43;100.00
73564;BME280;61834;50.196;6.454;2023-02-01T04:00:38;96772.66;;;3.41;100.00
73564;BME280;61834;50.196;6.454;2023-02-01T04:03:05;96771.72;;;3.45;100.00
73564;BME280;61834;50.196;6.454;2023-02-01T04:05:32;96775.84;;;3.43;100.00
73564;BME280;61834;50.196;6.454;2023-02-01T04:08:01;96783.44;;;3.49;99.75
73564;BME280;61834;50.196;6.454;2023-02-01T04:10:27;96783.97;;;3.43;100.00
73564;BME280;61834;50.196;6.454;2023-02-01T04:12:53;96800.25;;;3.34;100.00
73564;BME280;61834;50.196;6.454;2023-02-01T04:15:19;96803.47;;;3.28;100.00
73564;BME280;61834;50.196;6.454;2023-02-01T04:17:44;96810.63;;;3.24;100.00
73564;BME280;61834;50.196;6.454;2023-02-01T04:20:10;96817.75;;;3.37;97.12
73564;BME280;61834;50.196;6.454;2023-02-01T04:22:36;96822.41;;;3.28;97.69
73564;BME280;61834;50.196;6.454;2023-02-01T04:25:01;96820.97;;;3.30;96.17
73564;BME280;61834;50.196;6.454;2023-02-01T04:27:27;96807.16;;;3.23;96.32
73564;BME280;61834;50.196;6.454;2023-02-01T04:29:52;96813.81;;;3.26;95.12
73564;BME280;61834;50.196;6.454;2023-02-01T04:32:18;96800.56;;;3.33;94.41
73564;BME280;61834;50.196;6.454;2023-02-01T04:34:45;96786.91;;;3.29;95.09
73564;BME280;61834;50.196;6.454;2023-02-01T04:37:10;96784.72;;;3.23;95.66
73564;BME280;61834;50.196;6.454;2023-02-01T04:39:36;96789.38;;;3.14;96.21
73564;BME280;61834;50.196;6.454;2023-02-01T04:42:01;96772.69;;;3.12;96.93
73564;BME280;61834;50.196;6.454;2023-02-01T04:44:26;96777.63;;;3.10;97.20
73564;BME280;61834;50.196;6.454;2023-02-01T04:46:52;96772.19;;;3.18;96.35
73564;BME280;61834;50.196;6.454;2023-02-01T04:49:17;96786.50;;;3.19;96.45
73564;BME280;61834;50.196;6.454;2023-02-01T04:51:43;96792.53;;;3.16;96.06
73564;BME280;61834;50.196;6.454;2023-02-01T04:54:09;96784.59;;;3.11;96.50
73564;BME280;61834;50.196;6.454;2023-02-01T04:56:36;96778.59;;;3.05;96.45
73564;BME280;61834;50.196;6.454;2023-02-01T04:59:02;96778.28;;;3.07;96.13
73564;BME280;61834;50.196;6.454;2023-02-01T05:01:28;96791.03;;;2.98;97.07
73564;BME280;61834;50.196;6.454;2023-02-01T05:03:54;96794.38;;;2.95;97.27
73564;BME280;61834;50.196;6.454;2023-02-01T05:06:19;96801.34;;;3.04;97.21
73564;BME280;61834;50.196;6.454;2023-02-01T05:08:45;96805.19;;;3.03;96.67
73564;BME280;61834;50.196;6.454;2023-02-01T05:11:10;96799.06;;;3.15;95.50
73564;BME280;61834;50.196;6.454;2023-02-01T05:13:56;96819.59;;;3.16;95.34
73564;BME280;61834;50.196;6.454;2023-02-01T05:16:21;96818.16;;;3.18;95.28
73564;BME280;61834;50.196;6.454;2023-02-01T05:18:46;96813.41;;;3.15;95.77
73564;BME280;61834;50.196;6.454;2023-02-01T05:21:12;96805.91;;;3.12;95.58
73564;BME280;61834;50.196;6.454;2023-02-01T05:23:37;96804.19;;;3.08;94.90
73564;BME280;61834;50.196;6.454;2023-02-01T05:26:23;96810.91;;;3.02;95.39
73564;BME280;61834;50.196;6.454;2023-02-01T05:28:49;96810.28;;;2.96;95.39
73564;BME280;61834;50.196;6.454;2023-02-01T05:31:15;96806.94;;;2.99;94.74
73564;BME280;61834;50.196;6.454;2023-02-01T05:33:40;96806.97;;;2.91;96.32
73564;BME280;61834;50.196;6.454;2023-02-01T05:36:06;96801.41;;;2.87;95.87
73564;BME280;61834;50.196;6.454;2023-02-01T05:38:32;96804.88;;;2.96;95.67
73564;BME280;61834;50.196;6.454;2023-02-01T05:40:57;96802.16;;;2.96;95.20
73564;BME280;61834;50.196;6.454;2023-02-01T05:43:23;96799.66;;;2.83;96.14
73564;BME280;61834;50.196;6.454;2023-02-01T05:45:48;96796.78;;;2.88;95.21
73564;BME280;61834;50.196;6.454;2023-02-01T05:48:14;96796.31;;;2.86;94.93
73564;BME280;61834;50.196;6.454;2023-02-01T05:50:39;96806.84;;;2.79;95.27
73564;BME280;61834;50.196;6.454;2023-02-01T05:53:08;96802.88;;;2.76;95.10
73564;BME280;61834;50.196;6.454;2023-02-01T05:55:33;96794.25;;;2.83;94.75
73564;BME280;61834;50.196;6.454;2023-02-01T05:57:59;96798.78;;;2.62;95.70
73564;BME280;61834;50.196;6.454;2023-02-01T06:00:24;96796.28;;;2.48;96.30
73564;BME280;61834;50.196;6.454;2023-02-01T06:02:49;96793.22;;;2.67;95.18
73564;BME280;61834;50.196;6.454;2023-02-01T06:05:15;96805.94;;;2.57;95.61
73564;BME280;61834;50.196;6.454;2023-02-01T06:07:40;96804.84;;;2.58;95.49
73564;BME280;61834;50.196;6.454;2023-02-01T06:10:06;96803.09;;;2.54;95.91
73564;BME280;61834;50.196;6.454;2023-02-01T06:12:32;96817.25;;;2.51;96.38
73564;BME280;61834;50.196;6.454;2023-02-01T06:14:57;96814.69;;;2.46;96.34
73564;BME280;61834;50.196;6.454;2023-02-01T06:17:24;96803.25;;;2.49;95.96
73564;BME280;61834;50.196;6.454;2023-02-01T06:19:49;96805.03;;;2.45;96.14
73564;BME280;61834;50.196;6.454;2023-02-01T06:22:15;96801.50;;;2.44;96.35
73564;BME280;61834;50.196;6.454;2023-02-01T06:24:40;96799.44;;;2.50;95.57
73564;BME280;61834;50.196;6.454;2023-02-01T06:27:06;96803.41;;;2.44;95.85
73564;BME280;61834;50.196;6.454;2023-02-01T06:29:32;96795.16;;;2.49;95.86
73564;BME280;61834;50.196;6.454;2023-02-01T06:31:58;96792.28;;;2.54;95.26
73564;BME280;61834;50.196;6.454;2023-02-01T06:34:24;96792.28;;;2.45;95.85
73564;BME280;61834;50.196;6.454;2023-02-01T06:36:49;96786.25;;;2.48;95.68
73564;BME280;61834;50.196;6.454;2023-02-01T06:39:15;96793.41;;;2.44;96.51
73564;BME280;61834;50.196;6.454;2023-02-01T06:41:42;96776.38;;;2.52;95.61
73564;BME280;61834;50.196;6.454;2023-02-01T06:44:08;96768.59;;;2.59;95.08
73564;BME280;61834;50.196;6.454;2023-02-01T06:46:34;96788.16;;;2.48;95.60
73564;BME280;61834;50.196;6.454;2023-02-01T06:48:59;96791.84;;;2.43;96.33
73564;BME280;61834;50.196;6.454;2023-02-01T06:51:26;96786.25;;;2.48;95.78
73564;BME280;61834;50.196;6.454;2023-02-01T06:53:52;96784.97;;;2.46;96.57
73564;BME280;61834;50.196;6.454;2023-02-01T06:56:17;96781.81;;;2.44;96.81
73564;BME280;61834;50.196;6.454;2023-02-01T06:58:43;96781.81;;;2.44;96.53
73564;BME280;61834;50.196;6.454;2023-02-01T07:01:10;96790.22;;;2.51;96.00
73564;BME280;61834;50.196;6.454;2023-02-01T07:03:36;96790.53;;;2.49;96.30
73564;BME280;61834;50.196;6.454;2023-02-01T07:06:01;96799.59;;;2.53;95.71
73564;BME280;61834;50.196;6.454;2023-02-01T07:08:28;96794.81;;;2.50;96.78
73564;BME280;61834;50.196;6.454;2023-02-01T07:10:53;96793.72;;;2.60;95.63
73564;BME280;61834;50.196;6.454;2023-02-01T07:13:19;96803.56;;;2.56;96.19
73564;BME280;61834;50.196;6.454;2023-02-01T07:15:44;96810.25;;;2.58;95.94
73564;BME280;61834;50.196;6.454;2023-02-01T07:18:15;96810.69;;;2.60;95.45
73564;BME280;61834;50.196;6.454;2023-02-01T07:20:41;96816.56;;;2.63;95.48
73564;BME280;61834;50.196;6.454;2023-02-01T07:23:09;96819.44;;;2.57;95.44
73564;BME280;61834;50.196;6.454;2023-02-01T07:25:35;96820.72;;;2.69;94.46
73564;BME280;61834;50.196;6.454;2023-02-01T07:28:00;96815.75;;;2.71;93.89
73564;BME280;61834;50.196;6.454;2023-02-01T07:30:26;96820.84;;;2.72;93.04
73564;BME280;61834;50.196;6.454;2023-02-01T07:32:51;96824.03;;;2.66;93.59
73564;BME280;61834;50.196;6.454;2023-02-01T07:35:17;96824.09;;;2.57;94.81
73564;BME280;61834;50.196;6.454;2023-02-01T07:37:42;96836.31;;;2.63;94.04
73564;BME280;61834;50.196;6.454;2023-02-01T07:40:08;96847.25;;;2.67;93.51
73564;BME280;61834;50.196;6.454;2023-02-01T07:42:34;96836.13;;;2.68;94.51
73564;BME280;61834;50.196;6.454;2023-02-01T07:44:59;96828.34;;;2.67;94.14
73564;BME280;61834;50.196;6.454;2023-02-01T07:47:25;96835.97;;;2.65;94.00
73564;BME280;61834;50.196;6.454;2023-02-01T07:49:51;96837.72;;;2.69;94.01
73564;BME280;61834;50.196;6.454;2023-02-01T07:52:16;96840.72;;;2.68;93.44
73564;BME280;61834;50.196;6.454;2023-02-01T07:54:42;96840.88;;;2.71;93.90
73564;BME280;61834;50.196;6.454;2023-02-01T07:57:08;96832.16;;;2.66;94.76
73564;BME280;61834;50.196;6.454;2023-02-01T07:59:34;96837.88;;;2.73;93.70
73564;BME280;61834;50.196;6.454;2023-02-01T08:01:59;96829.75;;;2.64;94.22
73564;BME280;61834;50.196;6.454;2023-02-01T08:04:25;96835.50;;;2.63;94.27
73564;BME280;61834;50.196;6.454;2023-02-01T08:06:50;96832.16;;;2.66;94.53
73564;BME280;61834;50.196;6.454;2023-02-01T08:09:15;96849.97;;;2.67;94.12
73564;BME280;61834;50.196;6.454;2023-02-01T08:11:41;96846.47;;;2.66;94.45
73564;BME280;61834;50.196;6.454;2023-02-01T08:14:06;96848.03;;;2.67;93.77
73564;BME280;61834;50.196;6.454;2023-02-01T08:16:32;96840.56;;;2.73;93.63
73564;BME280;61834;50.196;6.454;2023-02-01T08:19:00;96837.53;;;2.74;93.55
73564;BME280;61834;50.196;6.454;2023-02-01T08:21:27;96839.75;;;2.81;93.12
73564;BME280;61834;50.196;6.454;2023-02-01T08:24:03;96854.56;;;2.75;94.04
73564;BME280;61834;50.196;6.454;2023-02-01T08:26:28;96844.69;;;2.79;93.03
73564;BME280;61834;50.196;6.454;2023-02-01T08:28:56;96838.50;;;2.78;92.62
73564;BME280;61834;50.196;6.454;2023-02-01T08:31:24;96831.97;;;2.79;93.05
73564;BME280;61834;50.196;6.454;2023-02-01T08:33:51;96839.47;;;2.74;93.40
73564;BME280;61834;50.196;6.454;2023-02-01T08:36:18;96851.50;;;2.85;92.62
73564;BME280;61834;50.196;6.454;2023-02-01T08:38:43;96848.50;;;2.86;92.76
73564;BME280;61834;50.196;6.454;2023-02-01T08:41:17;96851.66;;;2.88;93.29
73564;BME280;61834;50.196;6.454;2023-02-01T08:43:43;96855.78;;;2.86;92.48
73564;BME280;61834;50.196;6.454;2023-02-01T08:46:09;96864.88;;;2.81;93.12
73564;BME280;61834;50.196;6.454;2023-02-01T08:48:35;96874.72;;;2.86;92.30
73564;BME280;61834;50.196;6.454;2023-02-01T08:51:02;96866.28;;;2.87;92.46
73564;BME280;61834;50.196;6.454;2023-02-01T08:53:28;96881.25;;;2.85;92.46
73564;BME280;61834;50.196;6.454;2023-02-01T08:55:54;96867.09;;;2.88;92.58
73564;BME280;61834;50.196;6.454;2023-02-01T08:58:19;96883.97;;;2.85;93.64
73564;BME280;61834;50.196;6.454;2023-02-01T09:00:45;96897.16;;;2.86;93.19
73564;BME280;61834;50.196;6.454;2023-02-01T09:03:11;96893.50;;;2.82;94.54
73564;BME280;61834;50.196;6.454;2023-02-01T09:05:37;96884.59;;;2.90;92.51
73564;BME280;61834;50.196;6.454;2023-02-01T09:08:03;96888.34;;;3.06;91.85
73564;BME280;61834;50.196;6.454;2023-02-01T09:10:29;96888.84;;;3.00;92.30
73564;BME280;61834;50.196;6.454;2023-02-01T09:12:54;96897.63;;;2.97;92.22
73564;BME280;61834;50.196;6.454;2023-02-01T09:15:20;96902.38;;;3.00;91.06
73564;BME280;61834;50.196;6.454;2023-02-01T09:17:45;96915.25;;;3.03;91.38
73564;BME280;61834;50.196;6.454;2023-02-01T09:20:11;96903.00;;;3.05;91.79
73564;BME280;61834;50.196;6.454;2023-02-01T09:22:36;96911.44;;;3.04;92.00
73564;BME280;61834;50.196;6.454;2023-02-01T09:25:02;96919.84;;;3.02;92.07
73564;BME280;61834;50.196;6.454;2023-02-01T09:27:28;96917.03;;;2.99;92.61
73564;BME280;61834;50.196;6.454;2023-02-01T09:29:53;96904.44;;;3.03;92.09
73564;BME280;61834;50.196;6.454;2023-02-01T09:32:22;96915.09;;;3.08;91.64
73564;BME280;61834;50.196;6.454;2023-02-01T09:34:49;96917.31;;;3.06;92.92
73564;BME280;61834;50.196;6.454;2023-02-01T09:37:15;96923.84;;;3.13;91.85
73564;BME280;61834;50.196;6.454;2023-02-01T09:39:41;96931.28;;;3.16;90.96
73564;BME280;61834;50.196;6.454;2023-02-01T09:45:19;96945.78;;;3.12;91.39
73564;BME280;61834;50.196;6.454;2023-02-01T09:47:53;96930.22;;;3.09;91.09
73564;BME280;61834;50.196;6.454;2023-02-01T09:50:21;96931.47;;;3.11;92.18
73564;BME280;61834;50.196;6.454;2023-02-01T09:52:54;96923.84;;;3.13;91.66
73564;BME280;61834;50.196;6.454;2023-02-01T09:55:35;96921.53;;;3.32;90.48
73564;BME280;61834;50.196;6.454;2023-02-01T09:58:38;96905.28;;;3.32;90.86
73564;BME280;61834;50.196;6.454;2023-02-01T10:01:17;96906.56;;;3.35;90.10
73564;BME280;61834;50.196;6.454;2023-02-01T10:03:44;96905.44;;;3.36;90.61
73564;BME280;61834;50.196;6.454;2023-02-01T10:06:22;96904.03;;;3.38;90.71
73564;BME280;61834;50.196;6.454;2023-02-01T10:14:41;96910.09;;;3.35;90.22
73564;BME280;61834;50.196;6.454;2023-02-01T10:20:04;96901.47;;;3.42;89.49
73564;BME280;61834;50.196;6.454;2023-02-01T10:22:43;96900.00;;;3.44;90.04
73564;BME280;61834;50.196;6.454;2023-02-01T10:27:53;96897.78;;;3.46;90.57
73564;BME280;61834;50.196;6.454;2023-02-01T10:30:24;96892.66;;;3.53;90.14
73564;BME280;61834;50.196;6.454;2023-02-01T10:32:55;96884.34;;;3.58;88.57
73564;BME280;61834;50.196;6.454;2023-02-01T10:35:28;96892.19;;;3.51;88.73
73564;BME280;61834;50.196;6.454;2023-02-01T10:37:58;96883.91;;;3.48;88.99
73564;BME280;61834;50.196;6.454;2023-02-01T10:40:25;96898.84;;;3.54;89.17
73564;BME280;61834;50.196;6.454;2023-02-01T10:42:57;96900.63;;;3.50;88.97
73564;BME280;61834;50.196;6.454;2023-02-01T10:45:27;96895.69;;;3.52;88.83
73564;BME280;61834;50.196;6.454;2023-02-01T10:47:55;96898.47;;;3.64;88.14
73564;BME280;61834;50.196;6.454;2023-02-01T10:50:35;96898.53;;;3.55;88.90
73564;BME280;61834;50.196;6.454;2023-02-01T10:53:16;96899.97;;;3.53;90.48
73564;BME280;61834;50.196;6.454;2023-02-01T10:58:20;96889.63;;;3.55;87.98
73564;BME280;61834;50.196;6.454;2023-02-01T11:00:58;96901.25;;;3.55;89.02
73564;BME280;61834;50.196;6.454;2023-02-01T11:06:10;96896.03;;;3.50;89.10
73564;BME280;61834;50.196;6.454;2023-02-01T11:08:54;96888.81;;;3.54;89.33
73564;BME280;61834;50.196;6.454;2023-02-01T11:11:21;96889.78;;;3.58;88.80
73564;BME280;61834;50.196;6.454;2023-02-01T11:13:59;96892.28;;;3.63;88.50
73564;BME280;61834;50.196;6.454;2023-02-01T11:16:31;96881.38;;;3.80;87.37
73564;BME280;61834;50.196;6.454;2023-02-01T11:18:58;96896.16;;;3.83;87.26
73564;BME280;61834;50.196;6.454;2023-02-01T11:21:23;96909.13;;;3.69;87.87
73564;BME280;61834;50.196;6.454;2023-02-01T11:23:49;96894.81;;;3.68;88.33
73564;BME280;61834;50.196;6.454;2023-02-01T11:26:23;96895.09;;;3.75;87.76
73564;BME280;61834;50.196;6.454;2023-02-01T11:29:13;96899.00;;;3.86;88.13
73564;BME280;61834;50.196;6.454;2023-02-01T11:31:43;96905.28;;;3.78;89.25
73564;BME280;61834;50.196;6.454;2023-02-01T11:34:15;96899.00;;;3.86;87.85
73564;BME280;61834;50.196;6.454;2023-02-01T11:36:41;96889.09;;;3.90;86.56
73564;BME280;61834;50.196;6.454;2023-02-01T11:39:30;96891.06;;;3.81;88.13
73564;BME280;61834;50.196;6.454;2023-02-01T11:42:15;96886.91;;;3.84;88.09
73564;BME280;61834;50.196;6.454;2023-02-01T11:44:44;96886.66;;;3.98;86.70
73564;BME280;61834;50.196;6.454;2023-02-01T11:49:45;96886.63;;;4.06;86.04
73564;BME280;61834;50.196;6.454;2023-02-01T11:52:50;96875.25;;;4.13;84.54
73564;BME280;61834;50.196;6.454;2023-02-01T12:06:48;96847.91;;;4.26;84.47
73564;BME280;61834;50.196;6.454;2023-02-01T12:09:32;96845.59;;;4.37;84.84
73564;BME280;61834;50.196;6.454;2023-02-01T12:15:05;96830.03;;;4.46;83.57
73564;BME280;61834;50.196;6.454;2023-02-01T12:17:49;96816.81;;;4.44;84.58
73564;BME280;61834;50.196;6.454;2023-02-01T12:20:26;96825.88;;;4.48;83.91
73564;BME280;61834;50.196;6.454;2023-02-01T12:23:15;96812.19;;;4.45;84.17
73564;BME280;61834;50.196;6.454;2023-02-01T12:42:15;96802.94;;;4.78;82.65
73564;BME280;61834;50.196;6.454;2023-02-01T12:44:50;96800.66;;;4.68;81.64
73564;BME280;61834;50.196;6.454;2023-02-01T12:47:27;96802.69;;;4.71;82.85
73564;BME280;61834;50.196;6.454;2023-02-01T12:50:02;96803.34;;;4.68;83.34
73564;BME280;61834;50.196;6.454;2023-02-01T12:52:40;96805.06;;;4.73;82.38
73564;BME280;61834;50.196;6.454;2023-02-01T12:55:21;96802.59;;;4.80;82.23
73564;BME280;61834;50.196;6.454;2023-02-01T13:00:58;96802.06;;;4.98;82.68
73564;BME280;61834;50.196;6.454;2023-02-01T13:03:34;96804.56;;;5.03;81.58
73564;BME280;61834;50.196;6.454;2023-02-01T13:06:15;96800.69;;;4.92;81.60
73564;BME280;61834;50.196;6.454;2023-02-01T13:09:18;96794.41;;;5.00;80.46
73564;BME280;61834;50.196;6.454;2023-02-01T13:11:46;96802.22;;;5.14;79.65
73564;BME280;61834;50.196;6.454;2023-02-01T13:17:16;96802.31;;;5.17;78.88
73564;BME280;61834;50.196;6.454;2023-02-01T13:19:53;96797.13;;;5.25;80.33
73564;BME280;61834;50.196;6.454;2023-02-01T13:22:27;96804.94;;;5.50;77.57
73564;BME280;61834;50.196;6.454;2023-02-01T13:24:59;96794.53;;;5.52;76.88
73564;BME280;61834;50.196;6.454;2023-02-01T13:27:28;96806.50;;;5.63;76.08
73564;BME280;61834;50.196;6.454;2023-02-01T13:30:21;96784.22;;;5.58;77.42
73564;BME280;61834;50.196;6.454;2023-02-01T13:39:02;96804.59;;;5.76;77.31
73564;BME280;61834;50.196;6.454;2023-02-01T13:41:32;96792.03;;;5.83;76.11
73564;BME280;61834;50.196;6.454;2023-02-01T13:44:09;96796.41;;;6.00;76.77
73564;BME280;61834;50.196;6.454;2023-02-01T13:46:45;96803.22;;;6.33;73.56
73564;BME280;61834;50.196;6.454;2023-02-01T13:49:21;96790.75;;;6.05;73.65
73564;BME280;61834;50.196;6.454;2023-02-01T13:51:51;96778.53;;;5.75;75.40
73564;BME280;61834;50.196;6.454;2023-02-01T13:54:31;96783.53;;;5.85;74.83
73564;BME280;61834;50.196;6.454;2023-02-01T13:56:59;96794.75;;;5.83;76.96
73564;BME280;61834;50.196;6.454;2023-02-01T14:05:10;96792.16;;;5.39;77.09
73564;BME280;61834;50.196;6.454;2023-02-01T14:07:36;96797.56;;;5.87;74.24
73564;BME280;61834;50.196;6.454;2023-02-01T14:13:12;96776.97;;;6.53;72.77
73564;BME280;61834;50.196;6.454;2023-02-01T14:15:38;96808.81;;;6.53;72.41
73564;BME280;61834;50.196;6.454;2023-02-01T14:23:45;96793.38;;;5.65;74.89
73564;BME280;61834;50.196;6.454;2023-02-01T14:26:17;96787.16;;;5.53;76.82
73564;BME280;61834;50.196;6.454;2023-02-01T14:29:32;96770.22;;;5.56;74.42
73564;BME280;61834;50.196;6.454;2023-02-01T14:31:34;96784.78;;;5.51;75.94
73564;BME280;61834;50.196;6.454;2023-02-01T14:34:05;96769.53;;;5.47;75.99
73564;BME280;61834;50.196;6.454;2023-02-01T14:36:49;96778.47;;;5.35;74.85
73564;BME280;61834;50.196;6.454;2023-02-01T14:42:29;96787.16;;;5.53;75.23
73564;BME280;61834;50.196;6.454;2023-02-01T14:50:40;96793.50;;;5.33;76.80
73564;BME280;61834;50.196;6.454;2023-02-01T14:53:16;96801.75;;;5.24;77.98
73564;BME280;61834;50.196;6.454;2023-02-01T15:01:04;96796.66;;;4.98;80.54
73564;BME280;61834;50.196;6.454;2023-02-01T15:06:40;96807.50;;;4.98;79.02
73564;BME280;61834;50.196;6.454;2023-02-01T15:09:12;96803.97;;;4.98;79.14
73564;BME280;61834;50.196;6.454;2023-02-01T15:15:12;96810.66;;;4.88;79.92
73564;BME280;61834;50.196;6.454;2023-02-01T15:17:38;96818.69;;;4.97;78.92
73564;BME280;61834;50.196;6.454;2023-02-01T15:20:27;96811.75;;;4.87;80.08
73564;BME280;61834;50.196;6.454;2023-02-01T15:25:26;96809.63;;;4.93;79.34
73564;BME280;61834;50.196;6.454;2023-02-01T15:27:51;96821.97;;;4.90;79.45
73564;BME280;61834;50.196;6.454;2023-02-01T15:30:29;96812.09;;;4.86;80.29